Time;durP1;ratioP1;P1;durP2;ratioP2;P2;SDS_P1;SDS_P2;PMS_P1;PMS_P2;Temp;Humidity;BMP_temperature;BMP_pressure;BME280_temperature;BME280_humidity;BME280_pressure;Samples;Min_cycle;Max_cycle;Signal;HPM_P1;HPM_P2
2022/10/25 00:00:07;;;;;;;4.60;1.50;;;12.00;99.90;;;;;;5095883;28;20467;-64
2022/10/25 00:02:35;;;;;;;2.97;1.03;;;12.00;99.90;;;;;;5095406;28;20225;-64
2022/10/25 00:05:03;;;;;;;4.40;1.30;;;11.90;99.90;;;;;;5095481;28;20486;-64
2022/10/25 00:07:30;;;;;;;2.83;1.40;;;11.90;99.90;;;;;;5095806;28;20238;-64
2022/10/25 00:10:02;;;;;;;3.10;1.40;;;11.90;99.90;;;;;;5095706;28;20234;-64
2022/10/25 00:12:29;;;;;;;2.15;1.15;;;11.80;99.90;;;;;;5095426;28;20193;-64
2022/10/25 00:14:56;;;;;;;3.63;1.13;;;11.70;99.90;;;;;;5095171;28;20212;-65
2022/10/25 00:17:23;;;;;;;2.53;1.00;;;11.70;99.90;;;;;;5095734;28;20471;-64
2022/10/25 00:19:51;;;;;;;3.78;1.00;;;11.70;99.90;;;;;;5095238;28;20528;-64
2022/10/25 00:22:20;;;;;;;3.15;1.35;;;11.70;99.90;;;;;;5095522;28;20391;-64
2022/10/25 00:24:49;;;;;;;2.83;1.60;;;11.60;99.90;;;;;;5095291;28;20624;-64
2022/10/25 00:27:16;;;;;;;3.15;1.30;;;11.60;99.90;;;;;;5094967;28;20463;-64
2022/10/25 00:29:43;;;;;;;2.20;1.05;;;11.60;99.90;;;;;;5095386;28;20235;-64
2022/10/25 00:32:10;;;;;;;3.17;1.10;;;11.60;99.90;;;;;;5095293;28;20220;-64
2022/10/25 00:34:45;;;;;;;2.60;1.38;;;11.60;99.90;;;;;;5095239;28;20238;-64
2022/10/25 00:37:14;;;;;;;2.47;1.50;;;11.50;99.90;;;;;;5094805;28;20242;-63
2022/10/25 00:39:46;;;;;;;2.75;1.55;;;11.50;99.90;;;;;;5094851;28;20235;-64
2022/10/25 00:42:19;;;;;;;2.58;1.85;;;11.40;99.90;;;;;;5094798;28;20732;-64
2022/10/25 00:44:52;;;;;;;2.45;1.30;;;11.30;99.90;;;;;;5095163;28;20200;-64
2022/10/25 00:47:30;;;;;;;5.90;1.75;;;11.30;99.90;;;;;;5095159;28;20212;-64
2022/10/25 00:50:01;;;;;;;3.85;1.50;;;11.30;99.90;;;;;;5094940;28;20229;-65
2022/10/25 00:52:36;;;;;;;3.28;1.92;;;11.30;99.90;;;;;;5094976;28;20192;-65
2022/10/25 00:55:06;;;;;;;2.63;1.33;;;11.30;99.90;;;;;;5094878;28;20299;-64
2022/10/25 00:57:38;;;;;;;3.30;1.55;;;11.20;99.90;;;;;;5094842;28;20261;-64
2022/10/25 01:00:10;;;;;;;4.35;1.58;;;11.20;99.90;;;;;;5094569;28;20193;-64
2022/10/25 01:02:41;;;;;;;3.97;1.38;;;11.20;99.90;;;;;;5094594;28;20558;-64
2022/10/25 01:05:09;;;;;;;2.60;1.63;;;11.30;99.90;;;;;;5094131;28;20274;-64
2022/10/25 01:07:38;;;;;;;4.93;1.50;;;11.30;99.90;;;;;;5094721;28;20189;-64
2022/10/25 01:10:06;;;;;;;2.30;1.30;;;11.30;99.90;;;;;;5094461;28;20228;-64
2022/10/25 01:12:35;;;;;;;2.40;1.40;;;11.20;99.90;;;;;;5094065;28;20232;-64
2022/10/25 01:15:04;;;;;;;4.30;1.65;;;11.20;99.90;;;;;;5094368;28;20227;-64
2022/10/25 01:17:38;;;;;;;5.90;2.38;;;11.20;99.90;;;;;;5094188;28;20193;-65
2022/10/25 01:20:52;;;;;;;10.35;5.57;;;11.20;99.90;;;;;;5094178;28;20220;-65
2022/10/25 01:23:52;;;;;;;13.98;6.47;;;11.20;99.90;;;;;;5075466;28;20193;-64
2022/10/25 01:26:56;;;;;;;7.18;2.72;;;11.10;99.90;;;;;;5094407;28;20635;-64
2022/10/25 01:29:48;;;;;;;4.22;2.63;;;11.00;99.90;;;;;;5094165;28;20189;-64
2022/10/25 01:32:20;;;;;;;3.85;1.70;;;11.00;99.90;;;;;;5094380;28;20684;-64
2022/10/25 01:35:00;;;;;;;3.25;1.55;;;10.90;99.90;;;;;;5094206;28;20586;-64
2022/10/25 01:37:36;;;;;;;2.65;1.42;;;10.90;99.90;;;;;;5094295;28;20189;-65
2022/10/25 01:40:11;;;;;;;3.03;1.60;;;10.90;99.90;;;;;;5093562;28;20235;-64
2022/10/25 01:42:44;;;;;;;4.13;1.58;;;11.00;99.90;;;;;;5093946;28;20237;-64
2022/10/25 01:45:15;;;;;;;2.40;1.60;;;11.00;99.90;;;;;;5093645;28;20211;-64
2022/10/25 01:47:49;;;;;;;3.53;1.42;;;11.00;99.90;;;;;;5093719;28;20196;-64
2022/10/25 01:50:21;;;;;;;2.17;1.45;;;10.90;99.90;;;;;;5093975;28;20275;-64
2022/10/25 01:52:49;;;;;;;2.53;1.58;;;10.90;99.90;;;;;;5093590;28;20278;-64
2022/10/25 01:55:17;;;;;;;2.92;1.80;;;10.80;99.90;;;;;;5093755;28;20563;-64
2022/10/25 01:57:58;;;;;;;2.95;1.58;;;10.80;99.90;;;;;;5093724;28;20254;-64
2022/10/25 02:00:26;;;;;;;4.38;1.50;;;10.80;99.90;;;;;;5093724;28;20197;-65
2022/10/25 02:03:18;;;;;;;2.42;1.30;;;10.80;99.90;;;;;;5093361;28;20282;-63
2022/10/25 02:06:00;;;;;;;3.58;1.27;;;10.80;99.90;;;;;;5093491;28;20782;-66
2022/10/25 02:08:34;;;;;;;2.20;1.48;;;10.90;99.90;;;;;;5093611;28;20220;-65
2022/10/25 02:11:06;;;;;;;5.00;1.65;;;10.90;99.90;;;;;;5093448;28;20638;-64
2022/10/25 02:13:44;;;;;;;3.05;1.42;;;11.00;99.90;;;;;;5093332;28;20201;-65
2022/10/25 02:16:16;;;;;;;2.55;1.05;;;11.00;99.90;;;;;;5092932;28;20244;-64
2022/10/25 02:18:49;;;;;;;2.80;1.30;;;11.00;99.90;;;;;;5092870;28;20582;-64
2022/10/25 02:21:18;;;;;;;3.75;2.10;;;11.10;99.90;;;;;;5093366;28;20579;-64
2022/10/25 02:23:48;;;;;;;2.90;1.98;;;11.00;99.90;;;;;;5093094;28;20290;-64
2022/10/25 02:26:17;;;;;;;3.63;1.70;;;10.90;99.90;;;;;;5093257;28;20201;-64
2022/10/25 02:28:46;;;;;;;3.22;2.10;;;10.90;99.90;;;;;;5093462;28;20228;-64
2022/10/25 02:31:17;;;;;;;3.00;1.63;;;10.90;99.90;;;;;;5093240;28;20236;-63
2022/10/25 02:33:47;;;;;;;2.42;1.42;;;11.00;99.90;;;;;;5092910;28;20220;-64
2022/10/25 02:36:16;;;;;;;3.40;1.80;;;10.90;99.90;;;;;;5092330;28;20256;-63
2022/10/25 02:38:45;;;;;;;3.05;1.90;;;10.90;99.90;;;;;;5093192;28;20188;-64
2022/10/25 02:41:18;;;;;;;6.88;3.47;;;11.00;99.90;;;;;;5092689;28;20627;-64
2022/10/25 02:43:47;;;;;;;4.65;1.80;;;11.00;99.90;;;;;;5092723;28;20203;-64
2022/10/25 02:46:19;;;;;;;2.70;1.90;;;11.00;99.90;;;;;;5092651;28;20196;-64
2022/10/25 02:48:49;;;;;;;3.25;1.60;;;11.10;99.90;;;;;;5093056;28;20221;-64
2022/10/25 02:51:16;;;;;;;2.78;1.63;;;11.00;99.90;;;;;;5092485;28;20689;-64
2022/10/25 02:53:44;;;;;;;2.88;1.80;;;10.90;99.90;;;;;;5092786;28;20273;-63
2022/10/25 02:56:13;;;;;;;4.18;1.50;;;10.90;99.90;;;;;;5092554;28;20683;-64
2022/10/25 02:58:42;;;;;;;3.65;1.70;;;10.90;99.90;;;;;;5092419;28;20231;-64
2022/10/25 03:01:09;;;;;;;2.75;1.58;;;11.00;99.90;;;;;;5092535;28;20188;-64
2022/10/25 03:03:36;;;;;;;3.17;1.95;;;11.00;99.90;;;;;;5092637;28;20287;-64
2022/10/25 03:06:07;;;;;;;3.95;2.63;;;11.10;99.90;;;;;;5092095;28;20242;-64
2022/10/25 03:08:35;;;;;;;3.42;2.00;;;11.10;99.90;;;;;;5092391;28;20200;-65
2022/10/25 03:11:06;;;;;;;6.95;5.93;;;11.20;99.90;;;;;;5092242;28;20193;-64
2022/10/25 03:13:38;;;;;;;5.45;3.83;;;11.20;99.90;;;;;;5092483;28;20228;-64
2022/10/25 03:16:06;;;;;;;8.85;4.50;;;11.20;99.90;;;;;;5092646;28;20256;-64
2022/10/25 03:18:33;;;;;;;3.80;2.80;;;11.30;99.90;;;;;;5092485;28;20267;-65
2022/10/25 03:21:01;;;;;;;3.10;1.98;;;11.30;99.90;;;;;;5092588;28;20285;-65
2022/10/25 03:23:30;;;;;;;3.53;1.88;;;11.40;99.90;;;;;;5092443;28;20185;-65
2022/10/25 03:25:59;;;;;;;3.10;2.00;;;11.40;99.90;;;;;;5092577;28;20197;-64
2022/10/25 03:28:27;;;;;;;4.15;1.70;;;11.30;99.90;;;;;;5092540;28;20258;-64
2022/10/25 03:30:54;;;;;;;2.50;1.30;;;11.40;99.90;;;;;;5092454;28;20189;-63
2022/10/25 03:33:27;;;;;;;3.67;1.70;;;11.40;99.90;;;;;;5092572;28;20224;-64
2022/10/25 03:35:55;;;;;;;2.60;1.42;;;11.40;99.90;;;;;;5092703;28;20217;-64
2022/10/25 03:38:22;;;;;;;3.42;1.60;;;11.40;99.90;;;;;;5092389;28;20193;-64
2022/10/25 03:40:50;;;;;;;1.90;1.10;;;11.40;99.90;;;;;;5092259;28;20596;-64
2022/10/25 03:43:17;;;;;;;2.30;1.60;;;11.40;99.90;;;;;;5092372;28;20291;-65
2022/10/25 03:45:44;;;;;;;4.10;1.50;;;11.50;99.90;;;;;;5092214;28;20247;-64
2022/10/25 03:48:11;;;;;;;2.40;1.60;;;11.50;99.90;;;;;;5095651;28;20208;-64
2022/10/25 03:50:39;;;;;;;4.97;1.80;;;11.60;99.90;;;;;;5096128;28;20193;-64
2022/10/25 03:53:06;;;;;;;3.55;2.17;;;11.60;99.90;;;;;;5095551;28;20242;-64
2022/10/25 03:55:34;;;;;;;2.85;1.73;;;11.60;99.90;;;;;;5095512;28;20196;-64
2022/10/25 03:58:02;;;;;;;3.08;1.90;;;11.70;99.90;;;;;;5095889;28;20213;-64
2022/10/25 04:00:30;;;;;;;3.53;1.65;;;11.80;99.90;;;;;;5095713;28;20547;-65
2022/10/25 04:02:58;;;;;;;3.75;2.08;;;11.80;99.90;;;;;;5095806;28;20238;-65
2022/10/25 04:05:26;;;;;;;2.97;1.63;;;11.80;99.90;;;;;;5096141;28;20190;-65
2022/10/25 04:07:53;;;;;;;2.90;2.00;;;11.80;99.90;;;;;;5096327;28;20435;-64
2022/10/25 04:10:20;;;;;;;4.10;1.83;;;11.80;99.90;;;;;;5096121;28;20474;-64
2022/10/25 04:12:52;;;;;;;3.23;1.67;;;11.80;99.90;;;;;;5096011;28;20196;-64
2022/10/25 04:15:21;;;;;;;3.40;1.73;;;11.80;99.90;;;;;;5096087;28;20443;-64
2022/10/25 04:17:49;;;;;;;2.83;1.77;;;11.80;99.90;;;;;;5095457;28;20528;-64
2022/10/25 04:20:16;;;;;;;3.20;1.77;;;11.80;99.90;;;;;;5095310;28;20504;-64
2022/10/25 04:22:43;;;;;;;3.35;2.28;;;11.80;99.90;;;;;;5095878;28;20186;-64
2022/10/25 04:25:11;;;;;;;4.20;1.83;;;11.80;99.90;;;;;;5095310;28;20193;-64
2022/10/25 04:27:39;;;;;;;5.13;2.57;;;11.90;99.90;;;;;;5095492;28;20220;-64
2022/10/25 04:30:08;;;;;;;3.20;1.80;;;11.90;99.90;;;;;;5095475;28;21005;-64
2022/10/25 04:32:36;;;;;;;3.10;1.70;;;11.90;99.90;;;;;;5095387;28;20439;-65
2022/10/25 04:35:04;;;;;;;7.63;1.40;;;12.00;99.90;;;;;;5095209;28;20832;-64
2022/10/25 04:37:31;;;;;;;2.63;1.83;;;12.00;99.90;;;;;;5095270;28;20526;-65
2022/10/25 04:40:01;;;;;;;3.40;1.55;;;11.90;99.90;;;;;;5095550;28;20467;-64
2022/10/25 04:42:28;;;;;;;3.78;1.65;;;11.80;99.90;;;;;;5095361;28;20193;-65
2022/10/25 04:44:55;;;;;;;7.37;1.40;;;11.80;99.90;;;;;;5095180;28;20288;-65
2022/10/25 04:47:22;;;;;;;6.97;2.90;;;11.90;99.90;;;;;;5095326;28;20439;-65
2022/10/25 04:49:50;;;;;;;5.22;1.50;;;11.90;99.90;;;;;;5095000;28;20591;-64
2022/10/25 04:52:19;;;;;;;5.80;4.03;;;12.00;99.90;;;;;;5095068;28;20193;-65
2022/10/25 04:54:46;;;;;;;4.05;2.25;;;12.00;99.90;;;;;;5094641;28;20439;-64
2022/10/25 04:57:13;;;;;;;5.30;2.00;;;11.90;99.90;;;;;;5094502;28;20224;-65
2022/10/25 04:59:42;;;;;;;7.00;1.93;;;11.90;99.90;;;;;;5093849;28;20492;-65
2022/10/25 05:02:11;;;;;;;5.43;1.90;;;12.00;99.90;;;;;;5094542;28;20767;-64
2022/10/25 05:04:38;;;;;;;3.60;1.83;;;11.90;99.90;;;;;;5094597;28;20518;-64
2022/10/25 05:07:06;;;;;;;3.00;1.57;;;11.90;99.90;;;;;;5094632;28;20467;-65
2022/10/25 05:09:33;;;;;;;2.92;1.58;;;11.90;99.90;;;;;;5094610;28;20450;-65
2022/10/25 05:12:02;;;;;;;6.17;3.60;;;12.00;99.90;;;;;;5092236;28;20254;-65
2022/10/25 05:14:29;;;;;;;4.63;3.33;;;11.90;99.90;;;;;;5093132;28;20827;-66
2022/10/25 05:16:56;;;;;;;5.93;3.90;;;11.90;99.90;;;;;;5094104;28;20252;-65
2022/10/25 05:19:23;;;;;;;6.35;4.45;;;11.90;99.90;;;;;;5094103;28;20505;-64
2022/10/25 05:21:51;;;;;;;6.88;4.85;;;12.00;99.90;;;;;;5088777;28;20184;-65
2022/10/25 05:24:20;;;;;;;8.07;4.30;;;12.00;99.90;;;;;;5087905;28;20206;-65
2022/10/25 05:26:47;;;;;;;5.63;3.83;;;12.00;99.90;;;;;;5093311;28;20439;-65
2022/10/25 05:29:14;;;;;;;5.47;3.63;;;12.00;99.90;;;;;;5094108;28;20493;-66
2022/10/25 05:31:42;;;;;;;7.73;2.63;;;12.10;99.90;;;;;;5097516;28;20196;-65
2022/10/25 05:34:18;;;;;;;4.80;2.83;;;12.10;99.90;;;;;;5097442;28;20870;-65
2022/10/25 05:36:47;;;;;;;7.88;5.63;;;12.10;99.90;;;;;;5095311;28;20554;-65
2022/10/25 05:39:14;;;;;;;14.53;11.13;;;12.10;99.90;;;;;;5094965;28;20196;-64
2022/10/25 05:41:44;;;;;;;7.43;6.53;;;12.20;99.90;;;;;;5093663;28;20450;-65
2022/10/25 05:44:15;;;;;;;4.40;3.57;;;12.20;99.90;;;;;;5092664;28;20478;-65
2022/10/25 05:46:43;;;;;;;2.93;2.10;;;12.20;99.90;;;;;;5091983;28;20806;-65
2022/10/25 05:49:10;;;;;;;4.37;3.10;;;12.20;99.90;;;;;;5100479;28;20470;-65
2022/10/25 05:51:38;;;;;;;2.80;2.10;;;12.20;99.90;;;;;;5096239;28;20912;-65
2022/10/25 05:54:07;;;;;;;3.77;2.90;;;12.30;99.90;;;;;;5095588;28;20512;-65
2022/10/25 05:56:35;;;;;;;5.37;3.50;;;12.20;99.90;;;;;;5097564;28;20521;-64
2022/10/25 05:59:07;;;;;;;7.23;3.90;;;12.20;99.90;;;;;;5098644;28;20530;-65
2022/10/25 06:01:35;;;;;;;6.00;4.50;;;12.20;99.90;;;;;;5101873;28;20451;-65
2022/10/25 06:04:02;;;;;;;4.97;3.60;;;12.20;99.90;;;;;;5100580;28;20228;-64
2022/10/25 06:06:29;;;;;;;3.63;2.40;;;12.20;99.90;;;;;;5102557;28;20458;-65
2022/10/25 06:08:57;;;;;;;3.90;2.97;;;12.20;99.90;;;;;;5102880;28;20531;-65
2022/10/25 06:11:25;;;;;;;4.03;3.00;;;12.20;99.90;;;;;;5101997;28;20940;-64
2022/10/25 06:13:52;;;;;;;5.18;3.08;;;12.20;99.90;;;;;;5101910;28;20465;-65
2022/10/25 06:16:21;;;;;;;4.87;3.17;;;12.20;99.90;;;;;;5103387;28;20280;-65
2022/10/25 06:18:48;;;;;;;3.33;2.47;;;12.20;99.90;;;;;;5101483;28;20521;-64
2022/10/25 06:21:18;;;;;;;4.50;3.53;;;12.20;99.90;;;;;;5101960;28;20485;-65
2022/10/25 06:23:46;;;;;;;7.37;4.70;;;12.20;99.90;;;;;;5102119;28;20266;-65
2022/10/25 06:26:15;;;;;;;9.80;4.03;;;12.20;99.90;;;;;;5099026;28;20853;-65
2022/10/25 06:28:43;;;;;;;7.33;3.10;;;12.20;99.90;;;;;;5094355;28;20443;-65
2022/10/25 06:31:12;;;;;;;7.20;5.10;;;12.20;99.90;;;;;;5095986;28;20435;-65
2022/10/25 06:33:41;;;;;;;8.23;4.57;;;12.20;99.90;;;;;;5105255;28;20556;-64
2022/10/25 06:36:13;;;;;;;6.60;4.80;;;12.20;99.90;;;;;;5105347;28;20477;-65
2022/10/25 06:38:41;;;;;;;16.30;12.93;;;12.30;99.90;;;;;;5099928;28;20482;-65
2022/10/25 06:41:12;;;;;;;23.77;15.93;;;12.30;99.90;;;;;;5103925;28;20529;-66
2022/10/25 06:43:39;;;;;;;8.20;5.67;;;12.30;99.90;;;;;;5103381;28;20513;-64
2022/10/25 06:46:07;;;;;;;6.10;4.03;;;12.40;99.90;;;;;;5096362;28;20439;-65
2022/10/25 06:48:35;;;;;;;6.40;3.60;;;12.40;99.90;;;;;;5108426;28;20473;-64
2022/10/25 06:51:04;;;;;;;6.43;5.50;;;12.40;99.90;;;;;;5106387;28;20527;-65
2022/10/25 06:53:31;;;;;;;4.77;4.00;;;12.50;99.90;;;;;;5108575;28;20477;-67
2022/10/25 06:56:01;;;;;;;9.87;5.17;;;12.50;99.90;;;;;;5107518;28;20442;-65
2022/10/25 06:58:30;;;;;;;12.20;9.70;;;12.40;99.90;;;;;;5094386;28;20482;-65
2022/10/25 07:01:01;;;;;;;9.17;7.10;;;12.40;99.90;;;;;;5091820;28;20869;-66
2022/10/25 07:03:33;;;;;;;12.13;6.77;;;12.40;99.90;;;;;;5092050;28;20443;-65
2022/10/25 07:06:01;;;;;;;9.07;6.10;;;12.40;99.90;;;;;;5092468;28;21006;-65
2022/10/25 07:08:29;;;;;;;8.37;4.77;;;12.50;99.90;;;;;;5092309;28;20518;-65
2022/10/25 07:10:57;;;;;;;12.30;5.60;;;12.50;99.90;;;;;;5093289;28;20474;-66
2022/10/25 07:13:24;;;;;;;7.40;4.40;;;12.60;99.90;;;;;;5089519;28;20522;-65
2022/10/25 07:15:51;;;;;;;9.40;3.80;;;12.80;99.90;;;;;;5093046;28;20969;-64
2022/10/25 07:18:18;;;;;;;6.33;3.60;;;12.90;99.90;;;;;;5093355;28;20538;-64
2022/10/25 07:20:47;;;;;;;10.83;6.77;;;12.90;99.90;;;;;;5093740;28;20504;-64
2022/10/25 07:23:15;;;;;;;6.90;4.13;;;12.90;99.90;;;;;;5096729;28;20435;-65
2022/10/25 07:25:46;;;;;;;8.53;4.03;;;12.90;99.90;;;;;;5098366;28;20466;-65
2022/10/25 07:28:13;;;;;;;6.97;3.50;;;12.90;99.90;;;;;;5097833;28;20477;-65
2022/10/25 07:30:46;;;;;;;5.63;2.67;;;12.90;99.90;;;;;;5098005;28;20519;-65
2022/10/25 07:33:18;;;;;;;7.70;2.37;;;13.10;99.90;;;;;;5098869;28;20477;-65
2022/10/25 07:35:46;;;;;;;3.70;2.17;;;13.20;99.90;;;;;;5096432;28;20470;-65
2022/10/25 07:38:13;;;;;;;3.07;2.03;;;13.20;99.90;;;;;;5096783;28;20486;-64
2022/10/25 07:40:40;;;;;;;2.90;1.40;;;13.40;99.90;;;;;;5097300;28;20431;-65
2022/10/25 07:43:08;;;;;;;3.73;1.50;;;14.10;99.90;;;;;;5102587;28;20478;-65
2022/10/25 07:45:35;;;;;;;2.57;1.10;;;15.20;99.90;;;;;;5102837;28;20469;-65
2022/10/25 07:48:02;;;;;;;2.23;1.00;;;16.50;98.10;;;;;;5103473;28;20484;-65
2022/10/25 07:50:30;;;;;;;2.47;1.10;;;17.50;94.50;;;;;;5104376;28;20541;-66
2022/10/25 07:52:57;;;;;;;2.23;1.10;;;18.40;92.40;;;;;;5101631;28;20462;-66
2022/10/25 07:55:25;;;;;;;2.50;1.00;;;19.40;91.40;;;;;;5104997;28;20504;-65
2022/10/25 07:57:52;;;;;;;2.40;1.10;;;20.40;81.80;;;;;;5103602;28;20903;-66
2022/10/25 08:00:20;;;;;;;4.10;1.43;;;20.80;76.70;;;;;;5103655;28;20473;-65
2022/10/25 08:02:47;;;;;;;4.27;1.70;;;21.30;76.90;;;;;;5102639;28;20520;-65
2022/10/25 08:05:14;;;;;;;3.50;1.33;;;22.30;76.90;;;;;;5105996;28;20501;-66
2022/10/25 08:07:41;;;;;;;3.50;1.67;;;23.40;70.10;;;;;;5106404;28;20471;-65
2022/10/25 08:10:08;;;;;;;4.77;1.67;;;24.10;65.80;;;;;;5106230;28;20475;-66
2022/10/25 08:12:36;;;;;;;2.90;1.40;;;24.80;59.30;;;;;;5104537;28;20455;-67
2022/10/25 08:15:03;;;;;;;2.77;1.20;;;25.30;56.30;;;;;;5105048;28;20462;-66
2022/10/25 08:17:31;;;;;;;4.07;1.17;;;25.90;53.10;;;;;;5100656;28;20518;-66
2022/10/25 08:19:59;;;;;;;7.73;3.13;;;26.00;50.10;;;;;;5108361;28;20470;-67
2022/10/25 08:22:25;;;;;;;2.77;1.20;;;26.80;51.70;;;;;;5102141;28;20439;-66
2022/10/25 08:24:53;;;;;;;2.73;1.03;;;28.00;50.10;;;;;;5095054;28;20537;-65
2022/10/25 08:27:20;;;;;;;1.80;0.80;;;29.10;43.00;;;;;;5110292;28;20492;-66
2022/10/25 08:29:47;;;;;;;2.50;1.10;;;29.60;42.00;;;;;;5110325;28;20528;-66
2022/10/25 08:32:14;;;;;;;2.03;1.00;;;30.00;41.70;;;;;;5098854;28;20813;-66
2022/10/25 08:34:42;;;;;;;3.63;1.50;;;30.90;39.80;;;;;;5105669;28;20471;-66
2022/10/25 08:37:11;;;;;;;6.10;1.90;;;31.80;37.30;;;;;;5107771;28;20434;-66
2022/10/25 08:39:38;;;;;;;4.73;1.13;;;32.80;37.00;;;;;;5105789;28;20862;-66
2022/10/25 08:42:06;;;;;;;2.77;1.30;;;33.70;34.10;;;;;;5106650;28;20446;-66
2022/10/25 08:44:45;;;;;;;4.00;2.10;;;34.20;33.50;;;;;;5105856;28;20529;-66
2022/10/25 08:47:17;;;;;;;4.15;1.40;;;35.10;32.60;;;;;;5107866;28;20473;-66
2022/10/25 08:49:52;;;;;;;2.90;1.57;;;35.90;29.40;;;;;;5112190;28;20458;-66
2022/10/25 08:52:32;;;;;;;3.27;1.70;;;36.60;28.40;;;;;;5109180;28;20481;-66
2022/10/25 08:55:02;;;;;;;3.00;1.20;;;37.50;27.30;;;;;;5108184;28;20470;-66
2022/10/25 08:57:32;;;;;;;2.47;1.10;;;37.90;26.20;;;;;;5101747;28;20442;-67
2022/10/25 09:00:06;;;;;;;2.30;1.00;;;38.00;25.40;;;;;;5095140;28;20474;-66
2022/10/25 09:02:39;;;;;;;2.97;2.13;;;38.20;24.50;;;;;;5092827;28;20442;-67
2022/10/25 09:05:16;;;;;;;2.10;1.00;;;38.80;25.20;;;;;;5093826;28;20451;-66
2022/10/25 09:07:59;;;;;;;3.37;1.40;;;39.40;23.80;;;;;;5094918;28;20562;-66
2022/10/25 09:10:42;;;;;;;3.43;1.93;;;39.90;23.50;;;;;;5094861;28;20447;-66
2022/10/25 09:13:20;;;;;;;3.57;1.23;;;40.50;22.50;;;;;;5094577;28;20473;-66
2022/10/25 09:15:56;;;;;;;2.60;1.03;;;41.20;21.30;;;;;;5094436;28;21002;-66
2022/10/25 09:18:33;;;;;;;2.80;1.20;;;41.40;20.50;;;;;;5094581;28;20512;-66
2022/10/25 09:21:07;;;;;;;2.70;0.93;;;41.90;20.80;;;;;;5094918;28;20470;-67
2022/10/25 09:23:34;;;;;;;6.47;1.17;;;42.40;18.50;;;;;;5094714;28;20474;-67
2022/10/25 09:26:04;;;;;;;2.07;1.00;;;42.60;18.90;;;;;;5094566;28;20495;-67
2022/10/25 09:28:49;;;;;;;2.30;0.80;;;42.80;18.20;;;;;;5094561;28;20566;-67
2022/10/25 09:31:21;;;;;;;4.67;1.53;;;42.90;18.90;;;;;;5094518;28;20447;-66
2022/10/25 09:33:53;;;;;;;2.20;1.03;;;43.30;18.70;;;;;;5094600;28;20443;-67
2022/10/25 09:36:22;;;;;;;3.03;1.00;;;43.50;17.50;;;;;;5094518;28;20470;-66
2022/10/25 09:38:53;;;;;;;4.40;1.20;;;43.40;17.40;;;;;;5094228;28;20602;-66
2022/10/25 09:41:26;;;;;;;3.27;1.20;;;43.50;17.40;;;;;;5094311;28;20439;-64
2022/10/25 09:43:57;;;;;;;2.20;1.27;;;43.50;16.80;;;;;;5094182;28;20471;-64
2022/10/25 09:46:32;;;;;;;2.00;0.87;;;43.10;17.50;;;;;;5093402;28;20467;-64
2022/10/25 09:49:05;;;;;;;2.40;1.00;;;43.20;17.30;;;;;;5093796;28;20540;-65
2022/10/25 09:51:41;;;;;;;3.10;0.77;;;43.40;18.30;;;;;;5094133;28;20431;-64
2022/10/25 09:54:17;;;;;;;2.67;1.07;;;43.40;16.60;;;;;;5093522;28;20477;-65
2022/10/25 09:56:44;;;;;;;3.17;1.10;;;43.10;17.00;;;;;;5094202;28;20466;-64
2022/10/25 09:59:14;;;;;;;2.67;1.10;;;43.00;17.70;;;;;;5093806;28;20443;-64
2022/10/25 10:01:42;;;;;;;3.07;1.00;;;43.10;17.30;;;;;;5093886;28;20439;-64
2022/10/25 10:04:25;;;;;;;2.23;0.90;;;43.10;17.90;;;;;;5093778;28;20474;-64
2022/10/25 10:06:58;;;;;;;2.87;1.17;;;43.50;17.70;;;;;;5093854;28;20462;-64
2022/10/25 10:09:31;;;;;;;3.80;1.10;;;43.40;17.00;;;;;;5093845;28;20518;-64
2022/10/25 10:12:02;;;;;;;1.80;0.90;;;43.30;17.00;;;;;;5093543;28;20522;-65
2022/10/25 10:14:36;;;;;;;2.53;1.00;;;43.30;17.00;;;;;;5093706;28;20442;-64
2022/10/25 10:17:03;;;;;;;2.53;0.83;;;43.40;17.00;;;;;;5093348;28;20917;-64
2022/10/25 10:19:32;;;;;;;3.40;1.43;;;43.60;16.90;;;;;;5093180;28;20993;-64
2022/10/25 10:22:02;;;;;;;3.50;1.20;;;43.50;17.80;;;;;;5093371;28;20439;-64
2022/10/25 10:24:33;;;;;;;3.50;1.00;;;43.50;17.30;;;;;;5093366;28;20488;-64
2022/10/25 10:27:02;;;;;;;2.80;1.00;;;43.40;16.30;;;;;;5093607;28;20489;-65
2022/10/25 10:29:31;;;;;;;3.00;0.90;;;43.40;16.60;;;;;;5093484;28;20536;-64
2022/10/25 10:32:01;;;;;;;2.40;1.00;;;42.70;16.40;;;;;;5093490;28;20527;-64
2022/10/25 10:34:31;;;;;;;4.93;1.10;;;41.90;16.80;;;;;;5093189;28;20444;-65
2022/10/25 10:37:04;;;;;;;2.90;0.90;;;40.30;17.40;;;;;;5093498;28;20488;-64
2022/10/25 10:39:31;;;;;;;3.60;1.07;;;37.80;19.40;;;;;;5093317;28;20435;-63
2022/10/25 10:42:03;;;;;;;2.43;0.80;;;36.00;20.90;;;;;;5093360;28;20475;-64
2022/10/25 10:44:33;;;;;;;2.70;1.30;;;35.20;24.20;;;;;;5093177;28;20439;-64
2022/10/25 10:47:01;;;;;;;2.73;0.90;;;35.50;22.10;;;;;;5093196;28;20451;-64
2022/10/25 10:49:36;;;;;;;6.43;1.10;;;34.20;22.80;;;;;;5093146;28;20826;-64
2022/10/25 10:52:05;;;;;;;3.40;1.20;;;32.40;24.70;;;;;;5092627;28;20430;-63
2022/10/25 10:54:35;;;;;;;2.30;0.80;;;30.80;27.00;;;;;;5092710;28;20492;-65
2022/10/25 10:57:04;;;;;;;3.13;1.20;;;29.60;28.20;;;;;;5092154;28;20466;-65
2022/10/25 10:59:43;;;;;;;5.70;1.93;;;28.50;28.80;;;;;;5093270;28;20446;-66
2022/10/25 11:02:23;;;;;;;2.80;1.10;;;27.60;31.00;;;;;;5092897;28;20463;-66
2022/10/25 11:04:52;;;;;;;6.50;1.10;;;28.20;33.80;;;;;;5092724;28;20496;-66
2022/10/25 11:07:29;;;;;;;3.33;1.10;;;30.00;31.40;;;;;;5093185;28;20446;-65
2022/10/25 11:10:22;;;;;;;2.40;0.87;;;30.00;30.40;;;;;;5089400;28;20561;-67
2022/10/25 11:13:05;;;;;;;5.13;1.10;;;29.00;29.90;;;;;;5089416;28;20435;-65
2022/10/25 11:15:39;;;;;;;4.00;1.20;;;27.80;31.90;;;;;;5110694;28;20438;-66
2022/10/25 11:18:07;;;;;;;5.63;1.00;;;26.90;33.50;;;;;;5112315;28;21820;-65
2022/10/25 11:20:48;;;;;;;2.87;0.80;;;26.40;34.60;;;;;;5112061;28;20925;-66
2022/10/25 11:23:26;;;;;;;4.90;1.00;;;25.80;36.60;;;;;;5112996;28;20470;-65
2022/10/25 11:26:00;;;;;;;5.10;1.37;;;25.40;38.00;;;;;;5111416;28;20434;-65
2022/10/25 11:28:38;;;;;;;8.73;1.27;;;24.90;38.20;;;;;;5112433;28;20503;-66
2022/10/25 11:31:19;;;;;;;3.70;1.00;;;24.60;39.30;;;;;;5072113;28;20471;-69
2022/10/25 11:33:58;;;;;;;5.33;1.00;;;24.70;42.20;;;;;;5095275;28;20940;-65
2022/10/25 11:36:48;;;;;;;3.20;1.10;;;26.80;38.20;;;;;;5113098;28;20434;-65
2022/10/25 11:39:41;;;;;;;3.43;1.00;;;30.80;33.20;;;;;;5111775;28;20442;-65
2022/10/25 11:42:25;;;;;;;2.67;1.33;;;34.70;27.70;;;;;;5098604;28;20488;-68
2022/10/25 11:45:18;;;;;;;3.27;1.00;;;37.30;24.50;;;;;;5092433;28;20443;-66
2022/10/25 11:47:54;;;;;;;2.80;1.00;;;39.40;22.60;;;;;;5091936;28;20522;-66
2022/10/25 11:50:28;;;;;;;3.30;1.20;;;41.10;21.60;;;;;;5100601;28;20803;-68
2022/10/25 11:53:18;;;;;;;3.30;0.83;;;42.10;18.20;;;;;;5113007;28;20955;-66
2022/10/25 11:55:51;;;;;;;4.87;1.20;;;42.30;18.10;;;;;;5113094;28;20833;-67
2022/10/25 11:58:40;;;;;;;3.20;1.23;;;42.30;18.50;;;;;;5112590;28;20485;-66
2022/10/25 12:01:22;;;;;;;6.53;1.53;;;42.80;17.40;;;;;;5112470;28;20477;-66
2022/10/25 12:04:05;;;;;;;3.13;0.90;;;43.40;17.40;;;;;;5112592;28;20478;-66
2022/10/25 12:06:40;;;;;;;2.70;0.83;;;43.50;16.40;;;;;;5113110;28;20487;-66
2022/10/25 12:09:21;;;;;;;3.50;1.13;;;43.40;16.10;;;;;;5115706;28;20517;-66
2022/10/25 12:11:54;;;;;;;2.00;0.80;;;43.50;15.90;;;;;;5116396;28;20483;-66
2022/10/25 12:14:28;;;;;;;3.00;1.17;;;43.30;15.60;;;;;;5116582;28;20521;-66
2022/10/25 12:16:57;;;;;;;2.63;0.93;;;43.20;15.90;;;;;;5116622;28;20482;-66
2022/10/25 12:19:28;;;;;;;3.80;1.00;;;43.30;15.90;;;;;;5115805;28;20539;-66
2022/10/25 12:21:58;;;;;;;2.63;0.83;;;43.50;15.70;;;;;;5116603;28;20477;-66
2022/10/25 12:24:34;;;;;;;4.23;1.50;;;43.20;16.50;;;;;;5116121;28;20488;-66
2022/10/25 12:27:04;;;;;;;2.80;1.20;;;44.10;16.20;;;;;;5116373;28;20823;-67
2022/10/25 12:29:35;;;;;;;2.40;1.03;;;44.80;15.90;;;;;;5115855;28;20485;-67
2022/10/25 12:32:09;;;;;;;2.00;0.70;;;45.30;15.00;;;;;;5115655;28;20900;-67
2022/10/25 12:34:41;;;;;;;3.40;1.10;;;45.10;14.40;;;;;;5116129;28;20475;-67
2022/10/25 12:37:13;;;;;;;3.13;1.13;;;44.50;14.00;;;;;;5116194;28;20821;-67
2022/10/25 12:39:43;;;;;;;2.70;1.00;;;44.50;14.70;;;;;;5115843;28;20466;-67
2022/10/25 12:42:17;;;;;;;2.47;1.27;;;44.70;15.00;;;;;;5116185;28;20462;-67
2022/10/25 12:45:05;;;;;;;2.47;0.90;;;45.00;15.00;;;;;;5116077;28;20823;-67
2022/10/25 12:47:44;;;;;;;2.63;1.03;;;44.60;14.00;;;;;;5115374;28;20866;-67
2022/10/25 12:50:38;;;;;;;3.10;1.10;;;43.90;14.50;;;;;;5115555;28;20551;-67
2022/10/25 12:53:40;;;;;;;6.93;2.00;;;43.20;14.40;;;;;;5115809;28;20523;-67
2022/10/25 12:56:21;;;;;;;3.87;1.20;;;42.40;15.20;;;;;;5115557;28;20465;-67
2022/10/25 12:59:01;;;;;;;5.33;1.00;;;41.90;16.10;;;;;;5115684;28;20491;-66
2022/10/25 13:01:45;;;;;;;2.80;1.10;;;41.90;16.00;;;;;;5115616;28;20478;-68
2022/10/25 13:04:42;;;;;;;3.90;0.90;;;41.90;16.20;;;;;;5115068;28;20458;-67
2022/10/25 13:07:11;;;;;;;4.90;1.50;;;41.50;16.60;;;;;;5113248;28;20875;-67